Search for airport 
image banner adimage banner adimage banner ad
image banner ad

PA49 - Mountain Bay Air Park Inc

Located in Greentown, United States

ICAO - PA49, IATA -

Data provided by Airmate  

General information

Coordinates: N41°22'48" W75°13'57"
Elevation is 1500 feet MSL.
Magnetic variation is -12° East
View others Airports in Pennsylvania

Operational data

Special qualification required
Current time UTC:
Current local time:
Weather at : KMPO - Pocono Mountains Muni ( 30 km )
METAR: KMPO 091353Z AUTO 25004KT 10SM CLR 09/01 A3002 RMK AO2 SLP176 T00890011 $
View NOTAMs / SUP AIP / TFR affecting this airport [VIEW]
Communications frequencies: [VIEW]

Runways:

RWY identifierQFULength (ft)Width (ft)SurfaceLDA (ft)
12223055ASPH
30223055ASPH

Airport contact information

Address: Greentown United States

Satellite view of PA49